createdAt,value
2017-11-15T00:00:04.220Z,0
2017-11-15T00:01:04.500Z,0
2017-11-15T00:02:04.261Z,0
2017-11-15T00:03:03.894Z,0
2017-11-15T00:04:04.448Z,0
2017-11-15T00:05:04.695Z,0
2017-11-15T00:06:04.140Z,0
2017-11-15T00:07:04.377Z,0
2017-11-15T00:08:04.090Z,0
2017-11-15T00:09:04.652Z,0
2017-11-15T00:10:04.331Z,0
2017-11-15T00:11:04.060Z,0
2017-11-15T00:12:04.346Z,0
2017-11-15T00:13:04.026Z,0
2017-11-15T00:14:03.710Z,0
2017-11-15T00:15:04.259Z,0
2017-11-15T00:16:03.682Z,0
2017-11-15T00:17:03.945Z,0
2017-11-15T00:18:04.204Z,0
2017-11-15T00:19:03.905Z,0
2017-11-15T00:20:03.613Z,0
2017-11-15T00:21:04.151Z,0
2017-11-15T00:22:03.855Z,0
2017-11-15T00:23:04.130Z,0
2017-11-15T00:24:03.821Z,0
2017-11-15T00:25:03.809Z,0
2017-11-15T00:26:03.534Z,0
2017-11-15T00:27:03.515Z,0
2017-11-15T00:28:04.330Z,0
2017-11-15T00:29:03.751Z,0
2017-11-15T00:30:04.005Z,0
2017-11-15T00:31:03.999Z,0
2017-11-15T00:32:03.975Z,0
2017-11-15T00:33:03.685Z,0
2017-11-15T00:34:03.685Z,0
2017-11-15T00:35:03.953Z,0
2017-11-15T00:36:03.350Z,0
2017-11-15T00:37:03.618Z,0
2017-11-15T00:38:03.595Z,0
2017-11-15T00:39:04.139Z,0
2017-11-15T00:40:03.283Z,0
2017-11-15T00:41:03.842Z,0
2017-11-15T00:42:03.808Z,0
2017-11-15T00:43:03.794Z,0
2017-11-15T00:44:03.232Z,0
2017-11-15T00:45:03.501Z,0
2017-11-15T00:46:03.753Z,0
2017-11-15T00:47:03.447Z,0
2017-11-15T00:48:03.151Z,0
2017-11-15T00:49:03.431Z,0
2017-11-15T00:50:03.152Z,0
2017-11-15T00:51:03.122Z,0
2017-11-15T00:52:03.647Z,0
2017-11-15T00:53:03.348Z,0
2017-11-15T00:54:03.355Z,0
2017-11-15T00:55:03.314Z,0
2017-11-15T00:56:03.295Z,0
2017-11-15T00:57:03.842Z,0
2017-11-15T00:58:03.279Z,0
2017-11-15T00:59:03.242Z,0
2017-11-15T01:00:02.952Z,0
2017-11-15T01:01:02.941Z,0
2017-11-15T01:02:03.749Z,0
2017-11-15T01:03:03.775Z,0
2017-11-15T01:04:03.154Z,0
2017-11-15T01:05:03.701Z,0
2017-11-15T01:06:03.706Z,0
2017-11-15T01:07:03.389Z,0
2017-11-15T01:08:03.086Z,0
2017-11-15T01:09:02.804Z,0
2017-11-15T01:10:03.337Z,0
2017-11-15T01:11:03.041Z,0
2017-11-15T01:12:03.851Z,0
2017-11-15T01:13:03.008Z,0
2017-11-15T01:14:03.014Z,0
2017-11-15T01:15:03.253Z,0
2017-11-15T01:16:03.237Z,0
2017-11-15T01:17:03.526Z,0
2017-11-15T01:18:02.932Z,0
2017-11-15T01:19:03.187Z,0
2017-11-15T01:20:04.434Z,0
2017-11-15T01:21:03.166Z,0
2017-11-15T01:22:03.203Z,0
2017-11-15T01:23:02.569Z,0
2017-11-15T01:24:02.844Z,0
2017-11-15T01:25:02.550Z,0
2017-11-15T01:26:02.808Z,0
2017-11-15T01:27:03.328Z,0
2017-11-15T01:28:03.338Z,0
2017-11-15T01:29:02.470Z,0
2017-11-15T01:30:03.326Z,0
2017-11-15T01:31:02.723Z,0
2017-11-15T01:32:02.730Z,0
2017-11-15T01:33:02.709Z,0
2017-11-15T01:34:02.421Z,0
2017-11-15T01:35:02.956Z,0
2017-11-15T01:36:02.365Z,0
2017-11-15T01:37:02.906Z,0
2017-11-15T01:38:02.650Z,0
2017-11-15T01:39:02.585Z,0
2017-11-15T01:40:02.593Z,0
2017-11-15T01:41:02.850Z,0
2017-11-15T01:42:02.545Z,0
2017-11-15T01:43:02.808Z,0
2017-11-15T01:44:02.782Z,0
2017-11-15T01:45:02.487Z,0
2017-11-15T01:46:02.475Z,0
2017-11-15T01:47:02.733Z,0
2017-11-15T01:48:02.746Z,0
2017-11-15T01:49:02.428Z,0
2017-11-15T01:50:02.193Z,0
2017-11-15T01:51:02.406Z,0
2017-11-15T01:52:02.391Z,0
2017-11-15T01:53:02.377Z,0
2017-11-15T01:54:02.889Z,0
2017-11-15T01:55:02.629Z,0
2017-11-15T01:56:02.318Z,0
2017-11-15T01:57:02.009Z,0
2017-11-15T01:58:01.998Z,0
2017-11-15T01:59:02.252Z,0
2017-11-15T02:00:02.240Z,0
2017-11-15T02:01:01.963Z,0
2017-11-15T02:02:02.213Z,0
2017-11-15T02:03:01.962Z,0
2017-11-15T02:04:02.209Z,0
2017-11-15T02:05:02.193Z,0
2017-11-15T02:06:02.139Z,0
2017-11-15T02:07:02.126Z,0
2017-11-15T02:08:02.110Z,0
2017-11-15T02:09:02.423Z,0
2017-11-15T02:10:02.415Z,0
2017-11-15T02:11:02.337Z,0
2017-11-15T02:12:02.040Z,0
2017-11-15T02:13:02.321Z,0
2017-11-15T02:14:02.282Z,0
2017-11-15T02:15:01.996Z,0
2017-11-15T02:16:01.978Z,0
2017-11-15T02:17:02.017Z,0
2017-11-15T02:18:01.667Z,0
2017-11-15T02:19:01.931Z,0
2017-11-15T02:20:01.910Z,0
2017-11-15T02:21:01.616Z,0
2017-11-15T02:22:02.450Z,0
2017-11-15T02:23:01.864Z,0
2017-11-15T02:24:01.845Z,0
2017-11-15T02:25:02.112Z,0
2017-11-15T02:26:01.818Z,0
2017-11-15T02:27:01.517Z,0
2017-11-15T02:28:02.628Z,0
2017-11-15T02:29:02.033Z,0
2017-11-15T02:30:01.748Z,0
2017-11-15T02:31:02.299Z,0
2017-11-15T02:32:02.021Z,0
2017-11-15T02:33:01.699Z,0
2017-11-15T02:34:01.409Z,0
2017-11-15T02:35:01.390Z,0
2017-11-15T02:36:02.198Z,0
2017-11-15T02:37:01.632Z,0
2017-11-15T02:38:01.364Z,0
2017-11-15T02:39:01.636Z,0
2017-11-15T02:40:01.591Z,0
2017-11-15T02:41:01.582Z,0
2017-11-15T02:42:01.564Z,0
2017-11-15T02:43:01.529Z,0
2017-11-15T02:44:01.247Z,0
2017-11-15T02:45:01.500Z,0
2017-11-15T02:46:01.482Z,0
2017-11-15T02:47:01.471Z,0
2017-11-15T02:48:01.446Z,0
2017-11-15T02:49:01.716Z,0
2017-11-15T02:50:01.146Z,0
2017-11-15T02:51:01.429Z,0
2017-11-15T02:52:01.388Z,0
2017-11-15T02:53:01.378Z,0
2017-11-15T02:54:01.368Z,0
2017-11-15T02:55:01.614Z,0
2017-11-15T02:56:01.355Z,0
2017-11-15T02:57:01.591Z,0
2017-11-15T02:58:01.307Z,0
2017-11-15T02:59:01.010Z,0
2017-11-15T03:00:00.994Z,0
2017-11-15T03:01:01.522Z,0
2017-11-15T03:02:02.087Z,0
2017-11-15T03:03:01.215Z,0
2017-11-15T03:04:01.768Z,0
2017-11-15T03:05:01.171Z,0
2017-11-15T03:06:01.482Z,0
2017-11-15T03:07:00.867Z,0
2017-11-15T03:08:01.149Z,0
2017-11-15T03:09:01.103Z,0
2017-11-15T03:10:00.831Z,0
2017-11-15T03:11:01.633Z,0
2017-11-15T03:12:00.794Z,0
2017-11-15T03:13:01.613Z,0
2017-11-15T03:14:01.313Z,0
2017-11-15T03:15:01.047Z,0
2017-11-15T03:16:01.297Z,0
2017-11-15T03:17:00.699Z,0
2017-11-15T03:18:00.720Z,0
2017-11-15T03:19:00.971Z,0
2017-11-15T03:20:01.210Z,0
2017-11-15T03:21:00.913Z,0
2017-11-15T03:22:01.478Z,0
2017-11-15T03:23:01.169Z,0
2017-11-15T03:24:01.802Z,0
2017-11-15T03:25:00.583Z,0
2017-11-15T03:26:00.830Z,0
2017-11-15T03:27:01.395Z,0
2017-11-15T03:28:00.828Z,0
2017-11-15T03:29:00.509Z,0
2017-11-15T03:30:00.774Z,0
2017-11-15T03:31:00.779Z,0
2017-11-15T03:32:00.763Z,0
2017-11-15T03:33:00.729Z,0
2017-11-15T03:34:00.706Z,0
2017-11-15T03:35:00.429Z,0
2017-11-15T03:36:00.704Z,0
2017-11-15T03:37:00.662Z,0
2017-11-15T03:38:00.951Z,0
2017-11-15T03:39:00.626Z,0
2017-11-15T03:40:00.890Z,0
2017-11-15T03:41:00.619Z,0
2017-11-15T03:42:00.581Z,0
2017-11-15T03:43:00.858Z,0
2017-11-15T03:44:00.846Z,0
2017-11-15T03:45:00.805Z,0
2017-11-15T03:46:00.552Z,0
2017-11-15T03:47:00.515Z,0
2017-11-15T03:48:00.208Z,0
2017-11-15T03:49:01.319Z,0
2017-11-15T03:50:01.033Z,0
2017-11-15T03:51:00.178Z,0
2017-11-15T03:52:01.012Z,0
2017-11-15T03:53:00.396Z,0
2017-11-15T03:54:00.678Z,0
2017-11-15T03:55:00.669Z,0
2017-11-15T03:56:00.380Z,0
2017-11-15T03:57:00.890Z,0
2017-11-15T03:58:00.314Z,0
2017-11-15T03:59:00.063Z,0
2017-11-15T04:00:00.011Z,0
2017-11-15T04:01:00.552Z,0
2017-11-15T04:02:00.543Z,0
2017-11-15T04:03:00.260Z,0
2017-11-15T04:04:00.537Z,0
2017-11-15T04:05:00.213Z,0
2017-11-15T04:06:00.473Z,0
2017-11-15T04:07:00.458Z,0
2017-11-15T04:08:00.169Z,0
2017-11-15T04:09:00.145Z,0
2017-11-15T04:09:59.871Z,0
2017-11-15T04:10:59.835Z,0
2017-11-15T04:12:00.102Z,0
2017-11-15T04:13:00.074Z,0
2017-11-15T04:14:00.063Z,0
2017-11-15T04:15:00.062Z,0
2017-11-15T04:16:00.309Z,0
2017-11-15T04:17:00.024Z,0
2017-11-15T04:18:00.284Z,0
2017-11-15T04:18:59.703Z,0
2017-11-15T04:19:59.692Z,0
2017-11-15T04:20:59.688Z,0
2017-11-15T04:21:59.655Z,0
2017-11-15T04:22:59.928Z,0
2017-11-15T04:23:59.925Z,0
2017-11-15T04:25:00.187Z,0
2017-11-15T04:25:59.605Z,0
2017-11-15T04:26:59.885Z,0
2017-11-15T04:28:00.388Z,0
2017-11-15T04:28:59.839Z,0
2017-11-15T04:29:59.546Z,0
2017-11-15T04:30:59.515Z,0
2017-11-15T04:31:59.776Z,0
2017-11-15T04:32:59.776Z,0
2017-11-15T04:33:59.749Z,0
2017-11-15T04:34:59.742Z,0
2017-11-15T04:36:00.024Z,0
2017-11-15T04:36:59.697Z,0
2017-11-15T04:37:59.409Z,0
2017-11-15T04:38:59.948Z,0
2017-11-15T04:39:59.642Z,0
2017-11-15T04:40:59.628Z,0
2017-11-15T04:41:59.335Z,0
2017-11-15T04:42:59.622Z,0
2017-11-15T04:43:59.866Z,0
2017-11-15T04:45:00.043Z,0
2017-11-15T04:45:59.547Z,0
2017-11-15T04:46:59.550Z,0
2017-11-15T04:47:59.238Z,0
2017-11-15T04:48:59.535Z,0
2017-11-15T04:49:59.502Z,0
2017-11-15T04:50:59.214Z,0
2017-11-15T04:52:00.036Z,0
2017-11-15T04:52:59.710Z,0
2017-11-15T04:53:59.707Z,0
2017-11-15T04:54:59.688Z,0
2017-11-15T04:55:59.700Z,0
2017-11-15T04:56:59.369Z,0
2017-11-15T04:57:59.076Z,0
2017-11-15T04:58:59.079Z,0
2017-11-15T04:59:59.045Z,0
2017-11-15T05:00:59.579Z,0
2017-11-15T05:01:59.583Z,0
2017-11-15T05:02:59.839Z,0
2017-11-15T05:03:59.270Z,0
2017-11-15T05:04:59.243Z,0
2017-11-15T05:05:59.812Z,0
2017-11-15T05:06:59.774Z,0
2017-11-15T05:07:59.210Z,0
2017-11-15T05:08:59.475Z,0
2017-11-15T05:09:59.438Z,0
2017-11-15T05:10:59.154Z,0
2017-11-15T05:11:59.438Z,0
2017-11-15T05:12:59.396Z,0
2017-11-15T05:13:59.097Z,0
2017-11-15T05:14:59.645Z,0
2017-11-15T05:15:58.788Z,0
2017-11-15T05:16:59.058Z,0
2017-11-15T05:17:59.061Z,0
2017-11-15T05:18:59.062Z,0
2017-11-15T05:19:59.006Z,0
2017-11-15T05:20:59.286Z,0
2017-11-15T05:21:58.693Z,0
2017-11-15T05:22:59.811Z,0
2017-11-15T05:23:58.943Z,0
2017-11-15T05:24:59.209Z,0
2017-11-15T05:25:59.194Z,0
2017-11-15T05:26:58.632Z,0
2017-11-15T05:27:59.429Z,0
2017-11-15T05:28:58.585Z,0
2017-11-15T05:29:59.136Z,0
2017-11-15T05:30:58.560Z,0
2017-11-15T05:31:58.807Z,0
2017-11-15T05:32:59.085Z,0
2017-11-15T05:33:58.775Z,0
2017-11-15T05:34:58.496Z,0
2017-11-15T05:35:59.322Z,0
2017-11-15T05:36:58.752Z,0
2017-11-15T05:37:59.032Z,0
2017-11-15T05:38:58.447Z,0
2017-11-15T05:39:58.410Z,0
2017-11-15T05:40:59.222Z,0
2017-11-15T05:41:58.651Z,0
2017-11-15T05:42:59.211Z,0
2017-11-15T05:43:58.907Z,0
2017-11-15T05:44:58.882Z,0
2017-11-15T05:45:58.867Z,0
2017-11-15T05:46:58.848Z,0
2017-11-15T05:47:59.113Z,0
2017-11-15T05:48:58.824Z,0
2017-11-15T05:49:58.527Z,0
2017-11-15T05:50:58.513Z,0
2017-11-15T05:51:58.494Z,0
2017-11-15T05:52:58.749Z,0
2017-11-15T05:53:58.190Z,0
2017-11-15T05:54:58.176Z,0
2017-11-15T05:55:58.155Z,0
2017-11-15T05:56:58.175Z,0
2017-11-15T05:57:58.398Z,0
2017-11-15T05:58:58.388Z,0
2017-11-15T05:59:58.092Z,0
2017-11-15T06:00:58.633Z,0
2017-11-15T06:01:58.617Z,0
2017-11-15T06:02:58.319Z,0
2017-11-15T06:03:58.872Z,0
2017-11-15T06:04:58.584Z,0
2017-11-15T06:05:58.578Z,0
2017-11-15T06:06:58.554Z,0
2017-11-15T06:07:58.243Z,0
2017-11-15T06:08:57.955Z,0
2017-11-15T06:09:58.682Z,0
2017-11-15T06:10:58.995Z,0
2017-11-15T06:11:58.600Z,0
2017-11-15T06:12:59.070Z,0
2017-11-15T06:13:59.116Z,0
2017-11-15T06:14:58.365Z,0
2017-11-15T06:15:58.791Z,0
2017-11-15T06:16:59.437Z,0
2017-11-15T06:17:58.688Z,0
2017-11-15T06:18:57.883Z,0
2017-11-15T06:19:58.262Z,0
2017-11-15T06:20:58.334Z,0
2017-11-15T06:21:58.033Z,0
2017-11-15T06:22:58.101Z,0
2017-11-15T06:23:58.531Z,0
2017-11-15T06:24:58.382Z,0
2017-11-15T06:25:58.166Z,0
2017-11-15T06:26:58.776Z,0
2017-11-15T06:27:58.431Z,5
2017-11-15T06:28:58.087Z,5
2017-11-15T06:29:58.354Z,5
2017-11-15T06:30:58.923Z,5
2017-11-15T06:31:58.646Z,5
2017-11-15T06:32:57.691Z,5
2017-11-15T06:33:58.254Z,5
2017-11-15T06:34:58.333Z,5
2017-11-15T06:35:58.608Z,5
2017-11-15T06:36:57.959Z,5
2017-11-15T06:37:58.165Z,5
2017-11-15T06:38:57.753Z,5
2017-11-15T06:39:57.753Z,5
2017-11-15T06:40:58.279Z,5
2017-11-15T06:41:57.728Z,5
2017-11-15T06:42:57.998Z,5
2017-11-15T06:43:57.400Z,5
2017-11-15T06:44:57.391Z,5
2017-11-15T06:45:57.649Z,10
2017-11-15T06:46:57.907Z,10
2017-11-15T06:47:57.338Z,10
2017-11-15T06:48:57.895Z,10
2017-11-15T06:49:57.899Z,10
2017-11-15T06:50:57.295Z,10
2017-11-15T06:51:57.831Z,15
2017-11-15T06:52:57.571Z,15
2017-11-15T06:53:57.796Z,15
2017-11-15T06:54:57.792Z,20
2017-11-15T06:55:57.801Z,20
2017-11-15T06:56:57.501Z,25
2017-11-15T06:57:57.195Z,25
2017-11-15T06:58:57.732Z,25
2017-11-15T06:59:57.429Z,25
2017-11-15T07:00:57.135Z,25
2017-11-15T07:01:57.403Z,30
2017-11-15T07:02:57.378Z,35
2017-11-15T07:03:57.921Z,35
2017-11-15T07:04:57.352Z,40
2017-11-15T07:05:57.624Z,40
2017-11-15T07:06:57.321Z,35
2017-11-15T07:07:57.313Z,35
2017-11-15T07:08:57.841Z,35
2017-11-15T07:09:57.843Z,35
2017-11-15T07:10:57.528Z,35
2017-11-15T07:11:57.239Z,35
2017-11-15T07:12:57.819Z,35
2017-11-15T07:13:57.769Z,35
2017-11-15T07:14:57.758Z,35
2017-11-15T07:15:57.220Z,35
2017-11-15T07:16:57.158Z,35
2017-11-15T07:17:57.144Z,35
2017-11-15T07:18:57.705Z,35
2017-11-15T07:19:57.397Z,40
2017-11-15T07:20:57.374Z,45
2017-11-15T07:21:57.086Z,45
2017-11-15T07:22:57.071Z,45
2017-11-15T07:23:57.354Z,45
2017-11-15T07:24:57.327Z,45
2017-11-15T07:25:57.300Z,45
2017-11-15T07:26:57.246Z,45
2017-11-15T07:27:57.270Z,45
2017-11-15T07:28:56.975Z,45
2017-11-15T07:29:57.236Z,45
2017-11-15T07:30:56.699Z,50
2017-11-15T07:31:57.761Z,55
2017-11-15T07:32:56.940Z,55
2017-11-15T07:33:56.911Z,55
2017-11-15T07:34:57.175Z,55
2017-11-15T07:35:57.165Z,55
2017-11-15T07:36:57.150Z,60
2017-11-15T07:37:56.856Z,60
2017-11-15T07:38:56.842Z,60
2017-11-15T07:39:57.120Z,60
2017-11-15T07:40:56.824Z,60
2017-11-15T07:41:57.341Z,60
2017-11-15T07:42:56.766Z,60
2017-11-15T07:43:56.771Z,65
2017-11-15T07:44:56.756Z,70
2017-11-15T07:45:56.473Z,70
2017-11-15T07:46:56.978Z,70
2017-11-15T07:47:56.963Z,75
2017-11-15T07:48:56.696Z,80
2017-11-15T07:49:56.966Z,75
2017-11-15T07:50:56.402Z,75
2017-11-15T07:51:56.647Z,75
2017-11-15T07:52:56.638Z,75
2017-11-15T07:53:56.612Z,80
2017-11-15T07:54:56.868Z,85
2017-11-15T07:55:56.287Z,90
2017-11-15T07:56:56.828Z,95
2017-11-15T07:57:56.554Z,90
2017-11-15T07:58:56.539Z,95
2017-11-15T07:59:56.803Z,95
2017-11-15T08:00:56.213Z,95
2017-11-15T08:01:56.476Z,95
2017-11-15T08:02:56.748Z,95
2017-11-15T08:03:56.476Z,95
2017-11-15T08:04:56.727Z,100
2017-11-15T08:05:56.415Z,110
2017-11-15T08:06:57.225Z,115
2017-11-15T08:07:56.121Z,120
2017-11-15T08:08:56.373Z,130
2017-11-15T08:09:56.372Z,140
2017-11-15T08:10:56.359Z,150
2017-11-15T08:11:56.330Z,155
2017-11-15T08:12:56.589Z,150
2017-11-15T08:13:56.022Z,160
2017-11-15T08:14:56.861Z,165
2017-11-15T08:15:56.611Z,170
2017-11-15T08:16:56.547Z,170
2017-11-15T08:17:56.246Z,170
2017-11-15T08:18:56.503Z,170
2017-11-15T08:19:56.217Z,170
2017-11-15T08:20:56.196Z,170
2017-11-15T08:21:56.455Z,170
2017-11-15T08:22:56.716Z,180
2017-11-15T08:23:56.165Z,195
2017-11-15T08:24:56.714Z,205
2017-11-15T08:25:56.143Z,215
2017-11-15T08:26:56.105Z,220
2017-11-15T08:27:55.811Z,220
2017-11-15T08:28:56.360Z,225
2017-11-15T08:29:55.786Z,225
2017-11-15T08:30:56.631Z,210
2017-11-15T08:31:55.777Z,195
2017-11-15T08:32:56.593Z,185
2017-11-15T08:33:56.566Z,170
2017-11-15T08:34:55.714Z,160
2017-11-15T08:35:56.289Z,160
2017-11-15T08:36:55.710Z,160
2017-11-15T08:37:55.954Z,160
2017-11-15T08:38:55.936Z,165
2017-11-15T08:39:56.213Z,165
2017-11-15T08:40:55.624Z,165
2017-11-15T08:41:55.911Z,165
2017-11-15T08:42:55.599Z,165
2017-11-15T08:43:55.868Z,175
2017-11-15T08:44:56.144Z,180
2017-11-15T08:45:55.554Z,185
2017-11-15T08:46:56.371Z,195
2017-11-15T08:47:55.574Z,205
2017-11-15T08:48:55.797Z,205
2017-11-15T08:49:56.338Z,200
2017-11-15T08:50:55.490Z,200
2017-11-15T08:51:55.789Z,200
2017-11-15T08:52:56.318Z,195
2017-11-15T08:53:55.725Z,190
2017-11-15T08:54:56.009Z,195
2017-11-15T08:55:56.260Z,190
2017-11-15T08:56:55.425Z,165
2017-11-15T08:57:55.950Z,155
2017-11-15T08:58:55.650Z,150
2017-11-15T08:59:55.980Z,145
2017-11-15T09:00:55.947Z,150
2017-11-15T09:01:55.885Z,140
2017-11-15T09:02:55.873Z,135
2017-11-15T09:03:56.430Z,130
2017-11-15T09:04:55.311Z,125
2017-11-15T09:05:55.840Z,125
2017-11-15T09:06:55.835Z,125
2017-11-15T09:07:55.804Z,130
2017-11-15T09:08:56.075Z,130
2017-11-15T09:09:55.506Z,130
2017-11-15T09:10:55.263Z,135
2017-11-15T09:11:55.198Z,140
2017-11-15T09:12:55.183Z,145
2017-11-15T09:13:55.464Z,150
2017-11-15T09:14:55.155Z,160
2017-11-15T09:15:55.141Z,170
2017-11-15T09:16:55.410Z,175
2017-11-15T09:17:55.392Z,175
2017-11-15T09:18:55.104Z,170
2017-11-15T09:19:55.357Z,165
2017-11-15T09:20:55.621Z,160
2017-11-15T09:21:55.336Z,160
2017-11-15T09:22:55.065Z,165
2017-11-15T09:23:55.314Z,175
2017-11-15T09:24:55.585Z,185
2017-11-15T09:25:55.594Z,180
2017-11-15T09:26:55.831Z,180
2017-11-15T09:27:54.976Z,175
2017-11-15T09:28:54.967Z,170
2017-11-15T09:29:54.955Z,165
2017-11-15T09:30:55.832Z,160
2017-11-15T09:31:55.227Z,155
2017-11-15T09:32:55.187Z,155
2017-11-15T09:33:55.179Z,160
2017-11-15T09:34:55.453Z,155
2017-11-15T09:35:55.144Z,140
2017-11-15T09:36:55.154Z,145
2017-11-15T09:37:55.427Z,145
2017-11-15T09:38:55.674Z,150
2017-11-15T09:39:55.110Z,150
2017-11-15T09:40:55.089Z,150
2017-11-15T09:41:55.348Z,165
2017-11-15T09:42:55.340Z,180
2017-11-15T09:43:55.335Z,170
2017-11-15T09:44:55.046Z,165
2017-11-15T09:45:55.016Z,170
2017-11-15T09:46:54.719Z,175
2017-11-15T09:47:55.583Z,180
2017-11-15T09:48:54.699Z,180
2017-11-15T09:49:54.957Z,185
2017-11-15T09:50:54.956Z,195
2017-11-15T09:51:54.676Z,200
2017-11-15T09:52:54.671Z,200
2017-11-15T09:53:54.926Z,200
2017-11-15T09:54:54.646Z,200
2017-11-15T09:55:54.897Z,200
2017-11-15T09:56:54.872Z,200
2017-11-15T09:57:54.866Z,200
2017-11-15T09:58:54.840Z,200
2017-11-15T09:59:54.553Z,195
2017-11-15T10:00:54.539Z,190
2017-11-15T10:01:54.795Z,185
2017-11-15T10:02:55.632Z,180
2017-11-15T10:03:54.775Z,175
2017-11-15T10:04:54.490Z,170
2017-11-15T10:05:54.774Z,170
2017-11-15T10:06:55.321Z,165
2017-11-15T10:07:54.736Z,160
2017-11-15T10:08:54.714Z,160
2017-11-15T10:09:54.700Z,160
2017-11-15T10:10:55.231Z,160
2017-11-15T10:11:54.683Z,160
2017-11-15T10:12:54.658Z,160
2017-11-15T10:13:54.931Z,160
2017-11-15T10:14:54.356Z,160
2017-11-15T10:15:54.982Z,155
2017-11-15T10:16:54.912Z,155
2017-11-15T10:17:54.316Z,155
2017-11-15T10:18:54.866Z,150
2017-11-15T10:19:54.563Z,150
2017-11-15T10:20:54.549Z,155
2017-11-15T10:21:54.557Z,160
2017-11-15T10:22:54.250Z,165
2017-11-15T10:23:54.518Z,170
2017-11-15T10:24:54.500Z,175
2017-11-15T10:25:54.771Z,185
2017-11-15T10:26:55.042Z,185
2017-11-15T10:27:54.463Z,190
2017-11-15T10:28:54.171Z,195
2017-11-15T10:29:54.447Z,195
2017-11-15T10:30:54.424Z,195
2017-11-15T10:31:54.690Z,190
2017-11-15T10:32:54.140Z,190
2017-11-15T10:33:54.417Z,195
2017-11-15T10:34:54.087Z,195
2017-11-15T10:35:54.076Z,200
2017-11-15T10:36:54.073Z,205
2017-11-15T10:37:54.602Z,215
2017-11-15T10:38:54.040Z,215
2017-11-15T10:39:54.627Z,210
2017-11-15T10:40:54.874Z,210
2017-11-15T10:41:54.555Z,210
2017-11-15T10:42:53.989Z,210
2017-11-15T10:43:54.267Z,210
2017-11-15T10:44:54.513Z,210
2017-11-15T10:45:54.235Z,210
2017-11-15T10:46:54.498Z,215
2017-11-15T10:47:54.478Z,220
2017-11-15T10:48:55.030Z,225
2017-11-15T10:49:54.754Z,225
2017-11-15T10:50:54.435Z,230
2017-11-15T10:51:54.149Z,230
2017-11-15T10:52:54.713Z,225
2017-11-15T10:53:54.409Z,225
2017-11-15T10:54:53.838Z,225
2017-11-15T10:55:54.374Z,220
2017-11-15T10:56:54.940Z,220
2017-11-15T10:57:53.798Z,215
2017-11-15T10:58:54.073Z,215
2017-11-15T10:59:54.331Z,210
2017-11-15T11:00:54.311Z,210
2017-11-15T11:01:54.301Z,210
2017-11-15T11:02:53.737Z,210
2017-11-15T11:03:54.283Z,205
2017-11-15T11:04:53.999Z,205
2017-11-15T11:05:54.266Z,200
2017-11-15T11:06:54.236Z,200
2017-11-15T11:07:54.226Z,195
2017-11-15T11:08:53.937Z,195
2017-11-15T11:09:53.670Z,195
2017-11-15T11:10:54.234Z,195
2017-11-15T11:11:53.904Z,195
2017-11-15T11:12:53.901Z,195
2017-11-15T11:13:53.902Z,190
2017-11-15T11:14:54.152Z,190
2017-11-15T11:15:54.129Z,195
2017-11-15T11:16:53.564Z,195
2017-11-15T11:17:53.550Z,195
2017-11-15T11:18:53.554Z,195
2017-11-15T11:19:54.077Z,195
2017-11-15T11:20:54.070Z,190
2017-11-15T11:21:53.791Z,185
2017-11-15T11:22:54.063Z,185
2017-11-15T11:23:53.756Z,180
2017-11-15T11:24:54.013Z,175
2017-11-15T11:25:54.579Z,175
2017-11-15T11:26:54.015Z,175
2017-11-15T11:27:53.720Z,175
2017-11-15T11:28:53.689Z,180
2017-11-15T11:29:54.506Z,180
2017-11-15T11:30:53.670Z,185
2017-11-15T11:31:54.488Z,185
2017-11-15T11:32:53.646Z,180
2017-11-15T11:33:53.901Z,180
2017-11-15T11:34:53.893Z,185
2017-11-15T11:35:53.624Z,180
2017-11-15T11:36:53.588Z,180
2017-11-15T11:37:53.599Z,175
2017-11-15T11:38:53.865Z,175
2017-11-15T11:39:53.579Z,170
2017-11-15T11:40:53.835Z,175
2017-11-15T11:41:53.255Z,170
2017-11-15T11:42:53.792Z,165
2017-11-15T11:43:53.227Z,165
2017-11-15T11:44:53.780Z,160
2017-11-15T11:45:53.764Z,160
2017-11-15T11:46:53.211Z,155
2017-11-15T11:47:53.466Z,160
2017-11-15T11:48:53.439Z,155
2017-11-15T11:49:53.435Z,155
2017-11-15T11:50:54.259Z,150
2017-11-15T11:51:53.408Z,150
2017-11-15T11:52:53.664Z,150
2017-11-15T11:53:53.388Z,150
2017-11-15T11:54:53.379Z,155
2017-11-15T11:55:53.913Z,155
2017-11-15T11:56:53.339Z,160
2017-11-15T11:57:53.326Z,160
2017-11-15T11:58:53.336Z,155
2017-11-15T11:59:53.307Z,155
2017-11-15T12:00:53.295Z,160
2017-11-15T12:01:53.850Z,160
2017-11-15T12:02:53.553Z,160
2017-11-15T12:03:53.263Z,160
2017-11-15T12:04:52.963Z,160
2017-11-15T12:05:54.088Z,160
2017-11-15T12:06:53.215Z,160
2017-11-15T12:07:53.484Z,165
2017-11-15T12:08:52.908Z,165
2017-11-15T12:09:53.469Z,170
2017-11-15T12:10:53.167Z,170
2017-11-15T12:11:52.887Z,175
2017-11-15T12:12:53.181Z,175
2017-11-15T12:13:53.468Z,180
2017-11-15T12:14:52.891Z,180
2017-11-15T12:15:53.382Z,180
2017-11-15T12:16:53.363Z,185
2017-11-15T12:17:53.104Z,180
2017-11-15T12:18:53.068Z,170
2017-11-15T12:19:53.331Z,170
2017-11-15T12:20:53.327Z,165
2017-11-15T12:21:53.597Z,165
2017-11-15T12:22:52.738Z,165
2017-11-15T12:23:53.282Z,165
2017-11-15T12:24:52.986Z,165
2017-11-15T12:25:52.978Z,165
2017-11-15T12:26:53.239Z,165
2017-11-15T12:27:53.785Z,170
2017-11-15T12:28:52.940Z,170
2017-11-15T12:29:53.240Z,170
2017-11-15T12:30:53.201Z,165
2017-11-15T12:31:53.456Z,165
2017-11-15T12:32:52.886Z,165
2017-11-15T12:33:52.599Z,165
2017-11-15T12:34:52.869Z,165
2017-11-15T12:35:52.596Z,165
2017-11-15T12:36:52.568Z,170
2017-11-15T12:37:52.545Z,165
2017-11-15T12:38:53.083Z,165
2017-11-15T12:39:53.091Z,170
2017-11-15T12:40:53.344Z,165
2017-11-15T12:41:53.323Z,170
2017-11-15T12:42:52.783Z,170
2017-11-15T12:43:52.750Z,170
2017-11-15T12:44:53.021Z,165
2017-11-15T12:45:52.726Z,165
2017-11-15T12:46:52.993Z,165
2017-11-15T12:47:52.982Z,165
2017-11-15T12:48:52.422Z,160
2017-11-15T12:49:53.220Z,160
2017-11-15T12:50:52.946Z,160
2017-11-15T12:51:52.373Z,165
2017-11-15T12:52:52.914Z,165
2017-11-15T12:53:52.631Z,160
2017-11-15T12:54:53.199Z,160
2017-11-15T12:55:53.152Z,160
2017-11-15T12:56:52.581Z,160
2017-11-15T12:57:53.138Z,155
2017-11-15T12:58:52.859Z,150
2017-11-15T12:59:53.126Z,150
2017-11-15T13:00:52.254Z,145
2017-11-15T13:01:52.242Z,140
2017-11-15T13:02:52.510Z,140
2017-11-15T13:03:52.776Z,135
2017-11-15T13:04:52.760Z,135
2017-11-15T13:05:52.225Z,135
2017-11-15T13:06:52.738Z,130
2017-11-15T13:07:52.719Z,125
2017-11-15T13:08:52.719Z,125
2017-11-15T13:09:52.694Z,120
2017-11-15T13:10:52.692Z,120
2017-11-15T13:11:52.116Z,125
2017-11-15T13:12:52.669Z,130
2017-11-15T13:13:52.962Z,135
2017-11-15T13:14:52.695Z,135
2017-11-15T13:15:52.369Z,135
2017-11-15T13:16:52.917Z,135
2017-11-15T13:17:52.343Z,140
2017-11-15T13:18:52.303Z,140
2017-11-15T13:19:52.329Z,140
2017-11-15T13:20:52.276Z,140
2017-11-15T13:21:52.268Z,140
2017-11-15T13:22:52.823Z,135
2017-11-15T13:23:51.973Z,135
2017-11-15T13:24:51.976Z,135
2017-11-15T13:25:51.938Z,130
2017-11-15T13:26:52.208Z,130
2017-11-15T13:27:52.746Z,130
2017-11-15T13:28:51.917Z,130
2017-11-15T13:29:51.890Z,125
2017-11-15T13:30:52.432Z,125
2017-11-15T13:31:52.420Z,125
2017-11-15T13:32:52.691Z,125
2017-11-15T13:33:52.134Z,125
2017-11-15T13:34:51.839Z,125
2017-11-15T13:35:51.821Z,125
2017-11-15T13:36:52.639Z,125
2017-11-15T13:37:52.377Z,125
2017-11-15T13:38:52.605Z,120
2017-11-15T13:39:51.765Z,115
2017-11-15T13:40:52.072Z,115
2017-11-15T13:41:51.779Z,110
2017-11-15T13:42:52.005Z,105
2017-11-15T13:43:52.306Z,100
2017-11-15T13:44:51.993Z,100
2017-11-15T13:45:51.969Z,100
2017-11-15T13:46:51.952Z,100
2017-11-15T13:47:52.787Z,100
2017-11-15T13:48:52.215Z,100
2017-11-15T13:49:51.671Z,95
2017-11-15T13:50:51.917Z,95
2017-11-15T13:51:51.612Z,100
2017-11-15T13:52:52.452Z,100
2017-11-15T13:53:52.139Z,90
2017-11-15T13:54:51.852Z,90
2017-11-15T13:55:52.137Z,90
2017-11-15T13:56:51.822Z,90
2017-11-15T13:57:52.569Z,85
2017-11-15T13:58:51.525Z,80
2017-11-15T13:59:52.347Z,80
2017-11-15T14:00:51.521Z,80
2017-11-15T14:01:52.079Z,80
2017-11-15T14:02:52.039Z,75
2017-11-15T14:03:52.018Z,75
2017-11-15T14:04:51.735Z,75
2017-11-15T14:05:51.989Z,75
2017-11-15T14:06:51.700Z,75
2017-11-15T14:07:51.688Z,70
2017-11-15T14:08:51.684Z,70
2017-11-15T14:09:51.658Z,70
2017-11-15T14:10:51.924Z,70
2017-11-15T14:11:51.916Z,70
2017-11-15T14:12:51.649Z,65
2017-11-15T14:13:51.899Z,65
2017-11-15T14:14:51.626Z,60
2017-11-15T14:15:52.141Z,55
2017-11-15T14:16:51.856Z,50